KFTK/FTK METAR and TAF weather

Enter ICAO airport designator
Station Type Date Time Source
KFTK METAR 2019/04/25 01:56 UTC NOAA

KFTK 250156Z 21005KT 5SM -SHRA BR BKN025 OVC150 22/15 A2991 RMK SLPNO AO2A WND DATA ESTMD ALSTG ESTMD


Station Type Date Time Source
KFTK Decoded METAR 2019/04/25 01:56 UTC NOAA

Fort Knox, KY, United States (KFTK) 37-54N 085-58W 230M
Apr 24, 2019 - 09:56 PM EDT / 2019.04.25 0156 UTC
Wind: from the SSW (210 degrees) at 6 MPH (5 KT):0
Visibility: 5 mile(s):0
Sky conditions: overcast
Weather: light rain showers; mist
Temperature: 71 F (22 C)
Dew Point: 59 F (15 C)
Relative Humidity: 64%
Pressure (altimeter): 29.91 in. Hg (1012 hPa)
ob: KFTK 250156Z 21005KT 5SM -SHRA BR BKN025 OVC150 22/15 A2991 RMK SLPNO AO2A WND DATA ESTMD ALSTG ESTMD
cycle: 2

Station Type Date Time Source
KFTK TAF 2019/04/25 01:29 UTC NOAA

TAF KFTK 250100Z 2501/2607 21006KT 1600 -SHRA BKN025 OVC050 QNH2983INS
TEMPO 2501/2502 26015G25KT 3200 -TSRA SCT010 BKN020CB OVC040
BECMG 2502/2503 22006KT 6000 -SHRA BKN025 OVC050 QNH2984INS
BECMG 2514/2515 VRB06KT 6000 -SHRA BKN015 OVC030 QNH2987INS
TEMPO 2515/2518 26015G25KT 4800 -TSRA SCT010 BKN020CB OVC040 TX22/2501Z TN16/2511Z

Example: see airport list